createdAt,value
2022-10-17T00:00:56.511Z,23.48
2022-10-17T00:03:23.617Z,23.43
2022-10-17T00:05:50.599Z,23.34
2022-10-17T00:08:19.023Z,23.25
2022-10-17T00:10:55.758Z,23.49
2022-10-17T00:13:22.773Z,23.13
2022-10-17T00:15:49.785Z,23.41
2022-10-17T00:18:16.764Z,23.37
2022-10-17T00:20:43.781Z,23.48
2022-10-17T00:23:10.815Z,23.38
2022-10-17T00:25:37.739Z,23.33
2022-10-17T00:28:04.725Z,23.45
2022-10-17T00:30:32.798Z,23.34
2022-10-17T00:32:59.716Z,23.34
2022-10-17T00:35:26.653Z,23.13
2022-10-17T00:37:53.601Z,23.19
2022-10-17T00:40:20.615Z,23.14
2022-10-17T00:42:48.107Z,23.14
2022-10-17T00:45:21.181Z,23.32
2022-10-17T00:47:56.253Z,23.13
2022-10-17T00:50:24.310Z,23.20
2022-10-17T00:52:52.765Z,23.13
2022-10-17T00:55:29.249Z,23.24
2022-10-17T00:57:58.161Z,23.08
2022-10-17T01:00:25.648Z,23.09
2022-10-17T01:02:52.871Z,23.13
2022-10-17T01:05:20.374Z,23.35
2022-10-17T01:07:49.891Z,23.52
2022-10-17T01:10:17.803Z,23.39
2022-10-17T01:12:52.386Z,23.33
2022-10-17T01:15:43.641Z,23.40
2022-10-17T01:18:33.714Z,23.38
2022-10-17T01:21:41.021Z,23.38
2022-10-17T01:24:16.514Z,23.20
2022-10-17T01:27:33.325Z,23.52
2022-10-17T01:30:16.221Z,23.42
2022-10-17T01:32:52.810Z,23.28
2022-10-17T01:35:50.297Z,23.34
2022-10-17T01:38:42.570Z,23.14
2022-10-17T01:41:43.829Z,23.31
2022-10-17T01:44:48.753Z,22.78
2022-10-17T01:47:21.986Z,23.17
2022-10-17T01:49:51.922Z,23.23
2022-10-17T01:52:25.315Z,23.04
2022-10-17T01:55:06.575Z,23.11
2022-10-17T01:57:42.818Z,23.14
2022-10-17T02:00:15.467Z,22.98
2022-10-17T02:02:45.502Z,23.02
2022-10-17T02:07:42.120Z,23.11
2022-10-17T02:10:26.377Z,22.99
2022-10-17T02:13:25.634Z,22.95
2022-10-17T02:16:22.044Z,23.03
2022-10-17T02:18:57.729Z,22.94
2022-10-17T02:21:46.234Z,22.98
2022-10-17T02:26:57.680Z,22.97
2022-10-17T02:30:03.993Z,23.06
2022-10-17T02:33:01.681Z,22.91
2022-10-17T02:35:33.476Z,22.81
2022-10-17T02:38:03.767Z,22.73
2022-10-17T02:40:31.994Z,22.62
2022-10-17T02:43:03.251Z,22.58
2022-10-17T02:45:35.846Z,22.45
2022-10-17T02:48:25.547Z,22.62
2022-10-17T02:51:19.316Z,22.56
2022-10-17T02:53:54.253Z,22.60
2022-10-17T02:56:22.045Z,22.43
2022-10-17T02:58:58.484Z,22.31
2022-10-17T03:01:26.497Z,22.28
2022-10-17T03:04:12.907Z,22.42
2022-10-17T03:06:41.441Z,22.31
2022-10-17T03:09:08.846Z,21.99
2022-10-17T03:11:35.764Z,22.19
2022-10-17T03:14:02.720Z,22.14
2022-10-17T03:16:29.849Z,22.16
2022-10-17T03:18:56.826Z,22.29
2022-10-17T03:21:23.786Z,22.34
2022-10-17T03:23:52.060Z,22.36
2022-10-17T03:26:21.073Z,22.31
2022-10-17T03:28:50.670Z,22.17
2022-10-17T03:31:20.896Z,22.14
2022-10-17T03:33:50.100Z,22.18
2022-10-17T03:36:19.160Z,22.49
2022-10-17T03:38:48.192Z,22.36
2022-10-17T03:41:16.981Z,22.32
2022-10-17T03:43:43.922Z,22.13
2022-10-17T03:46:10.931Z,22.08
2022-10-17T03:48:38.434Z,22.10
2022-10-17T03:51:09.487Z,22.19
2022-10-17T03:53:44.696Z,22.10
2022-10-17T03:56:23.453Z,22.31
2022-10-17T03:58:57.195Z,22.06
2022-10-17T04:01:24.822Z,22.16
2022-10-17T04:03:55.216Z,22.16
2022-10-17T04:06:23.152Z,22.29
2022-10-17T04:08:50.644Z,22.11
2022-10-17T04:11:22.889Z,21.99
2022-10-17T04:13:55.679Z,22.20
2022-10-17T04:16:23.887Z,22.12
2022-10-17T04:18:59.608Z,22.06
2022-10-17T04:21:29.886Z,22.28
2022-10-17T04:24:01.179Z,21.96
2022-10-17T04:26:42.766Z,21.81
2022-10-17T04:29:11.638Z,21.88
2022-10-17T04:31:39.742Z,21.75
2022-10-17T04:34:48.087Z,21.70
2022-10-17T04:37:15.568Z,21.58
2022-10-17T04:39:44.076Z,21.67
2022-10-17T04:42:11.213Z,21.66
2022-10-17T04:44:38.264Z,21.57
2022-10-17T04:47:05.259Z,21.57
2022-10-17T04:49:32.320Z,21.65
2022-10-17T04:52:07.522Z,21.52
2022-10-17T04:54:43.544Z,21.60
2022-10-17T04:57:12.977Z,21.56
2022-10-17T04:59:41.262Z,21.61
2022-10-17T05:02:22.689Z,21.53
2022-10-17T05:04:50.806Z,21.39
2022-10-17T05:07:17.963Z,21.44
2022-10-17T05:09:58.920Z,21.51
2022-10-17T05:12:26.849Z,21.60
2022-10-17T05:14:54.311Z,21.54
2022-10-17T05:17:22.827Z,21.54
2022-10-17T05:19:50.152Z,21.46
2022-10-17T05:22:17.255Z,21.46
2022-10-17T05:24:44.326Z,21.50
2022-10-17T05:27:11.832Z,21.47
2022-10-17T05:29:39.748Z,21.42
2022-10-17T05:32:16.269Z,21.57
2022-10-17T05:34:43.585Z,21.33
2022-10-17T05:37:11.180Z,21.24
2022-10-17T05:39:39.369Z,21.35
2022-10-17T05:42:07.865Z,21.36
2022-10-17T05:44:35.807Z,21.25
2022-10-17T05:47:03.118Z,21.26
2022-10-17T05:49:44.695Z,21.29
2022-10-17T05:52:13.717Z,21.26
2022-10-17T05:54:55.344Z,21.23
2022-10-17T05:57:26.265Z,21.37
2022-10-17T05:59:55.018Z,21.21
2022-10-17T06:02:22.215Z,21.27
2022-10-17T06:04:50.350Z,21.26
2022-10-17T06:07:19.309Z,21.19
2022-10-17T06:09:47.412Z,21.28
2022-10-17T06:12:15.255Z,21.21
2022-10-17T06:14:43.713Z,21.34
2022-10-17T06:17:16.079Z,21.14
2022-10-17T06:19:44.971Z,21.13
2022-10-17T06:22:14.616Z,21.32
2022-10-17T06:24:42.438Z,21.17
2022-10-17T06:27:11.935Z,21.40
2022-10-17T06:29:40.545Z,21.47
2022-10-17T06:32:09.977Z,21.33
2022-10-17T06:34:40.733Z,21.39
2022-10-17T06:37:07.771Z,21.45
2022-10-17T06:39:36.633Z,21.46
2022-10-17T06:42:07.990Z,21.38
2022-10-17T06:44:46.405Z,21.42
2022-10-17T06:47:37.675Z,21.14
2022-10-17T06:50:16.951Z,20.80
2022-10-17T06:53:02.620Z,20.99
2022-10-17T06:55:53.896Z,20.91
2022-10-17T06:58:32.203Z,21.04
2022-10-17T07:01:15.545Z,21.18
2022-10-17T07:03:48.541Z,21.46
2022-10-17T07:06:16.015Z,21.31
2022-10-17T07:08:45.229Z,21.35
2022-10-17T07:11:20.602Z,21.67
2022-10-17T07:13:49.866Z,21.54
2022-10-17T07:16:17.348Z,21.46
2022-10-17T07:18:50.756Z,21.96
2022-10-17T07:21:18.847Z,21.55
2022-10-17T07:23:46.323Z,21.51
2022-10-17T07:26:16.064Z,21.46
2022-10-17T07:28:46.301Z,21.52
2022-10-17T07:31:25.572Z,21.50
2022-10-17T07:33:52.537Z,21.76
2022-10-17T07:36:20.567Z,21.86
2022-10-17T07:38:47.674Z,21.83
2022-10-17T07:41:19.190Z,21.51
2022-10-17T07:43:49.095Z,21.60
2022-10-17T07:46:20.161Z,21.95
2022-10-17T07:48:47.522Z,21.85
2022-10-17T07:51:14.687Z,21.55
2022-10-17T07:53:46.422Z,21.75
2022-10-17T07:56:15.937Z,21.97
2022-10-17T07:58:42.938Z,21.99
2022-10-17T08:01:15.405Z,21.89
2022-10-17T08:03:45.254Z,21.70
2022-10-17T08:06:13.083Z,21.87
2022-10-17T08:08:40.996Z,22.21
2022-10-17T08:11:12.099Z,22.40
2022-10-17T08:13:40.546Z,21.85
2022-10-17T08:16:10.769Z,22.54
2022-10-17T08:18:42.227Z,22.48
2022-10-17T08:21:10.116Z,22.37
2022-10-17T08:23:37.862Z,22.56
2022-10-17T08:26:10.309Z,21.96
2022-10-17T08:28:41.061Z,22.24
2022-10-17T08:31:15.531Z,22.29
2022-10-17T08:33:42.934Z,22.68
2022-10-17T08:36:10.346Z,22.09
2022-10-17T08:38:43.048Z,22.14
2022-10-17T08:41:43.396Z,22.07
2022-10-17T08:44:47.525Z,22.91
2022-10-17T08:47:21.264Z,22.72
2022-10-17T08:49:57.345Z,22.38
2022-10-17T08:52:53.974Z,23.38
2022-10-17T08:55:48.279Z,23.46
2022-10-17T08:58:21.187Z,23.43
2022-10-17T09:01:29.367Z,23.43
2022-10-17T09:04:43.223Z,22.99
2022-10-17T09:07:57.807Z,23.34
2022-10-17T09:10:53.929Z,24.32
2022-10-17T09:14:17.417Z,24.29
2022-10-17T09:17:08.613Z,23.69
2022-10-17T09:19:44.993Z,23.83
2022-10-17T09:22:21.793Z,24.02
2022-10-17T09:24:56.305Z,24.58
2022-10-17T09:27:44.731Z,24.38
2022-10-17T09:30:44.725Z,24.47
2022-10-17T09:33:28.432Z,24.79
2022-10-17T09:36:09.594Z,24.72
2022-10-17T09:38:53.492Z,24.49
2022-10-17T09:41:44.722Z,25.08
2022-10-17T09:44:24.650Z,24.99
2022-10-17T09:47:22.128Z,25.04
2022-10-17T09:49:50.299Z,24.86
2022-10-17T09:52:35.614Z,25.40
2022-10-17T09:55:18.255Z,25.37
2022-10-17T09:57:58.359Z,25.39
2022-10-17T10:00:36.470Z,25.05
2022-10-17T10:03:10.941Z,25.16
2022-10-17T10:05:38.168Z,25.26
2022-10-17T10:08:19.570Z,25.52
2022-10-17T10:10:46.925Z,25.47
2022-10-17T10:13:13.714Z,25.05
2022-10-17T10:15:44.643Z,25.54
2022-10-17T10:21:18.374Z,26.05
2022-10-17T10:24:12.388Z,25.85
2022-10-17T10:26:46.341Z,26.23
2022-10-17T10:29:32.172Z,25.73
2022-10-17T10:32:18.802Z,25.84
2022-10-17T10:35:18.930Z,26.26
2022-10-17T10:37:54.299Z,25.67
2022-10-17T10:40:33.472Z,26.19
2022-10-17T10:43:05.369Z,26.06
2022-10-17T10:45:54.127Z,26.32
2022-10-17T10:48:34.545Z,25.92
2022-10-17T10:51:09.762Z,25.90
2022-10-17T10:53:59.504Z,26.12
2022-10-17T10:56:34.226Z,25.76
2022-10-17T10:59:19.280Z,25.91
2022-10-17T11:01:46.169Z,26.06
2022-10-17T11:04:29.526Z,26.19
2022-10-17T11:07:24.938Z,26.48
2022-10-17T11:10:15.243Z,26.49
2022-10-17T11:13:09.909Z,26.75
2022-10-17T11:16:02.386Z,26.90
2022-10-17T11:18:39.442Z,26.63
2022-10-17T11:21:23.791Z,27.00
2022-10-17T11:24:24.928Z,27.54
2022-10-17T11:27:03.196Z,29.30
2022-10-17T11:29:39.683Z,32.05
2022-10-17T11:32:21.376Z,32.71
2022-10-17T11:34:51.313Z,33.36
2022-10-17T11:37:24.389Z,34.47
2022-10-17T11:39:58.772Z,35.76
2022-10-17T11:42:42.071Z,35.99
2022-10-17T11:45:17.275Z,35.51
2022-10-17T11:47:54.200Z,37.13
2022-10-17T11:53:31.517Z,36.75
2022-10-17T11:56:00.674Z,38.52
2022-10-17T11:58:39.551Z,39.49
2022-10-17T12:01:10.799Z,39.42
2022-10-17T12:04:17.846Z,39.46
2022-10-17T12:07:25.575Z,38.62
2022-10-17T12:10:37.061Z,34.85
2022-10-17T12:13:48.232Z,32.79
2022-10-17T12:16:21.243Z,33.01
2022-10-17T12:19:11.097Z,33.92
2022-10-17T12:21:59.156Z,32.64
2022-10-17T12:24:37.705Z,33.16
2022-10-17T12:27:38.683Z,32.37
2022-10-17T12:30:12.525Z,30.90
2022-10-17T12:36:27.633Z,30.68
2022-10-17T12:39:03.743Z,30.60
2022-10-17T12:41:41.151Z,30.39
2022-10-17T12:44:14.787Z,30.30
2022-10-17T12:46:58.644Z,30.91
2022-10-17T12:49:39.400Z,31.73
2022-10-17T12:52:35.132Z,34.81
2022-10-17T12:55:18.105Z,32.80
2022-10-17T12:58:05.781Z,34.45
2022-10-17T13:01:22.577Z,35.31
2022-10-17T13:03:51.919Z,33.51
2022-10-17T13:06:27.908Z,33.00
2022-10-17T13:09:10.651Z,32.58
2022-10-17T13:11:41.274Z,30.90
2022-10-17T13:14:14.823Z,31.34
2022-10-17T13:16:59.949Z,31.40
2022-10-17T13:19:33.565Z,30.54
2022-10-17T13:22:07.338Z,29.88
2022-10-17T13:24:38.901Z,30.03
2022-10-17T13:27:22.239Z,29.82
2022-10-17T13:29:52.888Z,29.08
2022-10-17T13:32:20.228Z,29.56
2022-10-17T13:35:14.930Z,29.53
2022-10-17T13:37:48.194Z,30.26
2022-10-17T13:40:44.579Z,31.40
2022-10-17T13:43:24.388Z,32.89
2022-10-17T13:46:19.190Z,33.56
2022-10-17T13:48:51.575Z,31.98
2022-10-17T13:51:23.757Z,30.69
2022-10-17T13:53:51.116Z,32.94
2022-10-17T13:56:32.419Z,33.19
2022-10-17T13:59:24.413Z,34.15
2022-10-17T14:01:53.052Z,34.22
2022-10-17T14:04:22.800Z,32.74
2022-10-17T14:06:52.249Z,30.72
2022-10-17T14:09:28.986Z,29.61
2022-10-17T14:12:12.799Z,29.20
2022-10-17T14:15:05.549Z,29.48
2022-10-17T14:17:31.792Z,29.03
2022-10-17T14:23:17.621Z,29.71
2022-10-17T14:28:26.737Z,29.17
2022-10-17T14:30:57.436Z,30.06
2022-10-17T14:33:29.863Z,29.56
2022-10-17T14:36:00.589Z,29.05
2022-10-17T14:38:29.576Z,29.27
2022-10-17T14:41:43.281Z,29.78
2022-10-17T14:44:23.650Z,30.22
2022-10-17T14:46:59.548Z,29.65
2022-10-17T14:49:40.652Z,29.59
2022-10-17T14:52:18.200Z,29.89
2022-10-17T14:54:50.274Z,30.06
2022-10-17T14:57:27.083Z,29.28
2022-10-17T14:59:57.950Z,29.17
2022-10-17T15:02:30.747Z,28.98
2022-10-17T15:05:00.896Z,28.58
2022-10-17T15:07:28.319Z,28.27
2022-10-17T15:09:55.610Z,27.94
2022-10-17T15:12:25.527Z,28.35
2022-10-17T15:14:56.803Z,29.07
2022-10-17T15:17:29.330Z,28.86
2022-10-17T15:19:57.266Z,28.87
2022-10-17T15:22:25.107Z,28.85
2022-10-17T15:24:52.190Z,27.70
2022-10-17T15:27:26.393Z,28.20
2022-10-17T15:29:53.448Z,27.91
2022-10-17T15:32:20.609Z,28.32
2022-10-17T15:34:47.599Z,28.88
2022-10-17T15:37:22.841Z,28.55
2022-10-17T15:39:54.966Z,28.40
2022-10-17T15:42:27.726Z,28.32
2022-10-17T15:44:55.783Z,28.07
2022-10-17T15:47:25.405Z,28.23
2022-10-17T15:49:53.854Z,28.42
2022-10-17T15:52:21.826Z,28.60
2022-10-17T15:54:48.947Z,28.26
2022-10-17T15:57:29.226Z,28.51
2022-10-17T15:59:59.316Z,28.02
2022-10-17T16:02:26.747Z,28.48
2022-10-17T16:04:54.244Z,28.85
2022-10-17T16:07:21.902Z,28.27
2022-10-17T16:09:48.988Z,28.11
2022-10-17T16:12:27.053Z,28.43
2022-10-17T16:14:54.239Z,27.96
2022-10-17T16:17:21.220Z,28.41
2022-10-17T16:19:48.279Z,28.52
2022-10-17T16:22:30.164Z,28.49
2022-10-17T16:25:24.648Z,28.33
2022-10-17T16:28:00.440Z,28.34
2022-10-17T16:30:30.506Z,28.40
2022-10-17T16:33:03.277Z,28.19
2022-10-17T16:35:34.749Z,28.07
2022-10-17T16:38:07.079Z,27.76
2022-10-17T16:40:37.867Z,27.58
2022-10-17T16:43:05.074Z,27.63
2022-10-17T16:45:32.210Z,27.69
2022-10-17T16:47:59.271Z,27.02
2022-10-17T16:50:26.526Z,27.00
2022-10-17T16:52:53.480Z,27.32
2022-10-17T16:55:20.572Z,27.36
2022-10-17T16:57:49.228Z,27.37
2022-10-17T17:00:17.997Z,27.22
2022-10-17T17:02:48.377Z,27.27
2022-10-17T17:05:15.787Z,27.21
2022-10-17T17:07:42.874Z,27.12
2022-10-17T17:10:10.183Z,27.44
2022-10-17T17:12:37.312Z,27.23
2022-10-17T17:15:04.789Z,27.32
2022-10-17T17:17:48.734Z,26.96
2022-10-17T17:20:18.345Z,26.56
2022-10-17T17:22:45.347Z,27.01
2022-10-17T17:25:12.327Z,27.04
2022-10-17T17:27:39.245Z,26.83
2022-10-17T17:30:07.750Z,26.69
2022-10-17T17:32:34.740Z,26.79
2022-10-17T17:35:02.274Z,26.96
2022-10-17T17:37:29.780Z,26.50
2022-10-17T17:39:56.863Z,26.45
2022-10-17T17:42:23.935Z,26.23
2022-10-17T17:44:51.062Z,26.29
2022-10-17T17:47:18.547Z,26.63
2022-10-17T17:49:45.571Z,26.32
2022-10-17T17:52:12.652Z,26.23
2022-10-17T17:54:40.962Z,26.49
2022-10-17T17:57:08.200Z,26.71
2022-10-17T17:59:44.661Z,26.58
2022-10-17T18:02:15.086Z,26.66
2022-10-17T18:04:44.510Z,26.73
2022-10-17T18:07:11.541Z,26.98
2022-10-17T18:09:38.582Z,26.64
2022-10-17T18:12:08.229Z,26.80
2022-10-17T18:15:00.017Z,26.57
2022-10-17T18:17:46.404Z,26.42
2022-10-17T18:20:42.079Z,26.34
2022-10-17T18:23:10.675Z,26.19
2022-10-17T18:25:37.633Z,26.07
2022-10-17T18:28:10.074Z,26.10
2022-10-17T18:30:38.902Z,25.77
2022-10-17T18:33:07.518Z,25.72
2022-10-17T18:35:35.393Z,25.73
2022-10-17T18:38:05.324Z,25.61
2022-10-17T18:40:33.158Z,25.75
2022-10-17T18:43:00.772Z,25.65
2022-10-17T18:45:28.018Z,25.82
2022-10-17T18:47:55.053Z,25.73
2022-10-17T18:50:26.672Z,25.71
2022-10-17T18:52:53.759Z,25.83
2022-10-17T18:55:25.061Z,25.84
2022-10-17T18:57:55.047Z,25.78
2022-10-17T19:00:25.084Z,25.96
2022-10-17T19:02:52.231Z,25.82
2022-10-17T19:05:19.331Z,25.38
2022-10-17T19:07:46.572Z,25.75
2022-10-17T19:10:19.043Z,25.71
2022-10-17T19:12:52.641Z,25.85
2022-10-17T19:15:25.140Z,25.60
2022-10-17T19:18:02.988Z,25.38
2022-10-17T19:20:33.190Z,25.26
2022-10-17T19:23:00.537Z,25.16
2022-10-17T19:25:32.431Z,25.27
2022-10-17T19:27:59.659Z,24.92
2022-10-17T19:30:26.582Z,25.04
2022-10-17T19:32:53.568Z,24.70
2022-10-17T19:35:20.497Z,24.83
2022-10-17T19:37:47.536Z,24.93
2022-10-17T19:40:14.648Z,25.03
2022-10-17T19:42:41.653Z,25.23
2022-10-17T19:45:09.978Z,25.01
2022-10-17T19:47:38.441Z,24.99
2022-10-17T19:50:06.843Z,25.03
2022-10-17T19:52:34.252Z,24.90
2022-10-17T19:55:01.351Z,24.63
2022-10-17T19:57:28.303Z,24.87
2022-10-17T19:59:56.151Z,24.76
2022-10-17T20:02:23.835Z,24.65
2022-10-17T20:05:00.110Z,24.70
2022-10-17T20:07:39.804Z,24.88
2022-10-17T20:10:07.734Z,24.77
2022-10-17T20:12:34.870Z,24.70
2022-10-17T20:15:01.949Z,24.74
2022-10-17T20:17:28.923Z,24.63
2022-10-17T20:19:55.877Z,24.55
2022-10-17T20:22:22.824Z,24.66
2022-10-17T20:24:49.937Z,24.66
2022-10-17T20:27:17.157Z,24.75
2022-10-17T20:29:44.282Z,24.67
2022-10-17T20:32:11.198Z,24.48
2022-10-17T20:34:38.314Z,24.50
2022-10-17T20:37:05.473Z,24.28
2022-10-17T20:39:32.620Z,24.14
2022-10-17T20:41:59.692Z,24.24
2022-10-17T20:44:26.712Z,24.25
2022-10-17T20:47:01.598Z,24.43
2022-10-17T20:49:31.745Z,24.52
2022-10-17T20:52:00.599Z,24.70
2022-10-17T20:54:28.476Z,24.69
2022-10-17T20:56:57.806Z,24.29
2022-10-17T20:59:28.145Z,24.16
2022-10-17T21:01:55.263Z,24.05
2022-10-17T21:04:44.695Z,24.14
2022-10-17T21:07:09.263Z,24.15
2022-10-17T21:09:36.200Z,24.30
2022-10-17T21:12:05.102Z,24.15
2022-10-17T21:14:33.334Z,24.15
2022-10-17T21:17:04.669Z,24.08
2022-10-17T21:19:32.615Z,23.97
2022-10-17T21:21:59.704Z,23.99
2022-10-17T21:24:26.659Z,23.97
2022-10-17T21:26:55.800Z,23.97
2022-10-17T21:29:23.878Z,23.95
2022-10-17T21:31:51.393Z,23.80
2022-10-17T21:34:23.900Z,24.02
2022-10-17T21:36:51.856Z,24.06
2022-10-17T21:39:19.120Z,24.03
2022-10-17T21:41:46.095Z,23.97
2022-10-17T21:44:16.765Z,24.01
2022-10-17T21:46:44.489Z,23.90
2022-10-17T21:49:14.742Z,24.11
2022-10-17T21:51:42.524Z,24.04
2022-10-17T21:54:09.725Z,23.58
2022-10-17T21:56:37.239Z,23.64
2022-10-17T21:59:05.522Z,23.76
2022-10-17T22:01:39.709Z,23.82
2022-10-17T22:04:12.107Z,23.78
2022-10-17T22:06:41.924Z,23.65
2022-10-17T22:09:17.635Z,23.65
2022-10-17T22:11:49.644Z,23.63
2022-10-17T22:14:20.036Z,23.55
2022-10-17T22:16:47.991Z,23.43
2022-10-17T22:19:24.343Z,23.59
2022-10-17T22:21:51.551Z,23.43
2022-10-17T22:26:48.634Z,23.33
2022-10-17T22:29:16.112Z,23.45
2022-10-17T22:31:43.056Z,23.30
2022-10-17T22:34:13.598Z,23.48
2022-10-17T22:36:40.656Z,23.19
2022-10-17T22:39:07.676Z,23.12
2022-10-17T22:41:34.743Z,23.18
2022-10-17T22:44:01.699Z,23.11
2022-10-17T22:46:29.065Z,23.02
2022-10-17T22:48:56.139Z,22.97
2022-10-17T22:53:50.925Z,23.18
2022-10-17T22:56:20.661Z,23.28
2022-10-17T22:58:48.481Z,23.22
2022-10-17T23:01:22.927Z,23.51
2022-10-17T23:03:51.109Z,23.30
2022-10-17T23:06:18.699Z,23.24
2022-10-17T23:08:46.117Z,23.08
2022-10-17T23:11:13.313Z,23.19
2022-10-17T23:13:40.911Z,23.15
2022-10-17T23:16:08.429Z,23.08
2022-10-17T23:18:37.242Z,23.30
2022-10-17T23:21:04.786Z,23.14
2022-10-17T23:23:31.849Z,23.10
2022-10-17T23:26:12.452Z,23.21
2022-10-17T23:28:40.481Z,23.21
2022-10-17T23:31:20.655Z,23.31
2022-10-17T23:33:49.966Z,23.19
2022-10-17T23:36:20.107Z,23.24
2022-10-17T23:38:48.025Z,22.96
2022-10-17T23:41:15.658Z,23.00
2022-10-17T23:43:43.275Z,22.94
2022-10-17T23:46:10.999Z,22.97
2022-10-17T23:48:38.934Z,22.80
2022-10-17T23:51:07.120Z,22.95
2022-10-17T23:53:34.446Z,22.81
2022-10-17T23:56:01.538Z,22.85
2022-10-17T23:58:29.356Z,22.78
